Weather at Båtsfjord Airport

Public forecast

Using degrees Celsius for public forecast. Weather courtesy of forecast.io.

Current aviation weather report (METAR) for Båtsfjord Airport

Report is more than 6 hours old.

2022/11/14 15:20 (retrieved 2 years ago)

ENBS 141520Z 21008KT CAVOK M02/M05 Q1017

Closest aviation forecast (TAF) to Båtsfjord Airport

Forecast is more than 12 hours old.

Closest forecast is Lakselv Airport, Banak, 100.5 nm (186.1 km) WSW.

2023/02/22 18:36 (retrieved 1 year ago)

TAF ENNA 221700Z 2218/2318 18020KT CAVOK TEMPO 2218/2306 18030G45KT BLSN TEMPO 2302/2309 2500 -SN VV010 TEMPO 2306/2318 18020G35KT BLSN